Terminal Aerodrome Forecast
Issued by NWS Wilmington, OH

Current Version | Previous Version | Text Only | Print | Product List | Glossary Off
Versions: 1 2 3 4 5 6 7 8 9 10 11 12 13 14 15 16 17 18 19 20 21 22 23 24 25 26 27 28 29 30

000
FTUS41 KILN 230340 AAB
TAFDAY
TAF AMD
KDAY 230340Z 2304/2324 12010KT 3SM -RA BR OVC004
     FM231000 13007KT 2SM SHRA BR OVC006
     FM231300 17008KT 2SM SHRA OVC006
     FM231600 23012KT P6SM VCSH OVC008
     FM232200 27009KT P6SM OVC015=

USA.gov is the U.S. government's official web portal to all federal, state and local government web resources and services.